Meteo Giornale » Osservazioni meteo Stati Uniti (USA) » Jackson Carroll
ore: 17:53 - Osservazioni Meteo Jackson Carroll
Lat. 37° 35' N Lon. 83° 18' W Alt. 421 metri s.l.m.
29 °C
Sereno
Temp. 24 Ore
21 °C
32 °C
Nord
0 Km/h
Dew point 23 °C
Umidità 70 %
Visibilità 10 Km
Il sole sorge alle ore 07:02
Il sole tramonta alle ore 20:04
| Data e Ora | Cielo e Fenomeni | T °C | DP °C | Um. % | Pres. hPa | Vis. km | Vento km/h | |
|---|---|---|---|---|---|---|---|---|
| Oggi h: 17:53 | Sereno | 29 | 23 | 70 | 1020 | 10 | N 0 | |
| Oggi h: 16:53 | Sereno | 29 | 21 | 62 | 1021 | 10 | N 0 | |
| Oggi h: 15:53 | Coperto | 28 | 21 | 65 | 1021 | 10 | N 0 | |
| Oggi h: 14:53 | Nuvoloso | 32 | 22 | 55 | 1021 | 10 | N 5.5 | |
| Oggi h: 13:53 | Sereno | 30 | 22 | 62 | 1022 | 10 | NO 7.4 | |
| Oggi h: 12:53 | Sereno | 29 | 23 | 70 | 1022 | 10 | N 7.4 | |
| Oggi h: 11:53 | Sereno | 28 | 22 | 69 | 1022 | 10 | N 0 | |
| Oggi h: 10:53 | Sereno | 27 | 22 | 74 | 1022 | 10 | N 0 | |
| Oggi h: 09:53 | Sereno | 23 | 21 | 88 | 1022 | 10 | N 0 | |
| Oggi h: 08:53 | Sereno | 22 | 19 | 83 | 1022 | 10 | N 0 | |
| Oggi h: 07:53 | Sereno | 21 | 19 | 88 | 1021 | 10 | N 0 | |
| Oggi h: 06:53 | Nuvoloso | 21 | 19 | 88 | 1021 | 10 | N 0 | |
| Oggi h: 05:53 | Nuvoloso | 21 | 20 | 94 | 1021 | 10 | N 0 | |
| Oggi h: 04:53 | Sereno | 22 | 19 | 83 | 1020 | 10 | N 0 | |
| Oggi h: 03:53 | Sereno | 22 | 19 | 83 | 1020 | 10 | N 0 | |
| Oggi h: 02:53 | Sereno | 22 | 20 | 88 | 1020 | 10 | N 0 | |
| Oggi h: 01:53 | Sereno | 22 | 21 | 94 | 1020 | 10 | N 0 | |
| Oggi h: 00:53 | Sereno | 23 | 21 | 88 | 1021 | 10 | N 0 | |
| Ieri h: 23:53 | Sereno | 24 | 21 | 83 | 1021 | 10 | N 0 | |
| Ieri h: 22:53 | Sereno | 25 | 21 | 78 | 1021 | 10 | N 0 | |
| Ieri h: 21:53 | Sereno | 26 | 21 | 73 | 1021 | 10 | N 0 | |
| Ieri h: 20:53 | Sereno | 26 | 21 | 73 | 1020 | 10 | N 0 | |
| Ieri h: 19:53 | Sereno | 27 | 22 | 74 | 1020 | 10 | N 0 | |
| Ieri h: 18:53 | Poco Nuvoloso | 29 | 19 | 54 | 1020 | 10 | N 0 | |



